createdAt,value
2018-12-01T00:00:35.272Z,6.30
2018-12-01T00:03:04.853Z,6.30
2018-12-01T00:05:34.125Z,6.30
2018-12-01T00:08:03.403Z,6.30
2018-12-01T00:10:32.705Z,6.20
2018-12-01T00:13:02.066Z,6.10
2018-12-01T00:15:33.128Z,6.10
2018-12-01T00:18:02.462Z,6.10
2018-12-01T00:20:35.814Z,6.10
2018-12-01T00:23:05.962Z,6.10
2018-12-01T00:25:35.335Z,6.10
2018-12-01T00:28:04.714Z,6.10
2018-12-01T00:30:34.054Z,6.10
2018-12-01T00:33:03.673Z,6.10
2018-12-01T00:35:32.908Z,6.10
2018-12-01T00:38:02.635Z,6.00
2018-12-01T00:40:32.804Z,6.00
2018-12-01T00:43:02.110Z,5.90
2018-12-01T00:45:31.367Z,5.90
2018-12-01T00:48:00.611Z,5.80
2018-12-01T00:50:29.911Z,5.90
2018-12-01T00:52:59.154Z,5.80
2018-12-01T00:55:28.418Z,5.80
2018-12-01T00:57:57.851Z,5.80
2018-12-01T01:00:27.985Z,5.80
2018-12-01T01:02:58.730Z,5.90
2018-12-01T01:05:30.427Z,5.80
2018-12-01T01:08:00.549Z,5.80
2018-12-01T01:10:31.048Z,5.70
2018-12-01T01:13:00.343Z,5.70
2018-12-01T01:15:29.622Z,5.70
2018-12-01T01:17:58.865Z,5.70
2018-12-01T01:20:28.214Z,5.70
2018-12-01T01:22:57.527Z,5.70
2018-12-01T01:25:26.797Z,5.70
2018-12-01T01:27:56.142Z,5.70
2018-12-01T01:30:25.562Z,5.70
2018-12-01T01:33:06.054Z,5.80
2018-12-01T01:35:35.329Z,5.80
2018-12-01T01:38:04.626Z,5.80
2018-12-01T01:40:33.877Z,5.80
2018-12-01T01:43:03.126Z,5.80
2018-12-01T01:45:32.356Z,5.70
2018-12-01T01:48:01.627Z,5.70
2018-12-01T01:50:30.901Z,5.70
2018-12-01T01:53:00.745Z,5.70
2018-12-01T01:55:30.032Z,5.80
2018-12-01T01:57:59.310Z,5.80
2018-12-01T02:00:28.588Z,5.70
2018-12-01T02:02:57.842Z,5.60
2018-12-01T02:05:27.062Z,5.60
2018-12-01T02:07:57.075Z,5.60
2018-12-01T02:10:26.318Z,5.60
2018-12-01T02:12:55.575Z,5.60
2018-12-01T02:15:24.848Z,5.60
2018-12-01T02:17:54.080Z,5.60
2018-12-01T02:20:23.367Z,5.50
2018-12-01T02:22:52.653Z,5.50
2018-12-01T02:25:21.959Z,5.60
2018-12-01T02:27:51.203Z,5.60
2018-12-01T02:30:21.377Z,5.60
2018-12-01T02:32:50.717Z,5.60
2018-12-01T02:35:22.363Z,5.60
2018-12-01T02:37:52.413Z,5.60
2018-12-01T02:40:21.759Z,5.60
2018-12-01T02:42:51.142Z,5.50
2018-12-01T02:45:31.574Z,5.50
2018-12-01T02:48:00.830Z,5.50
2018-12-01T02:50:30.829Z,5.50
2018-12-01T02:53:01.036Z,5.50
2018-12-01T02:55:30.397Z,5.50
2018-12-01T02:58:00.210Z,5.50
2018-12-01T03:00:29.550Z,5.50
2018-12-01T03:02:58.866Z,5.50
2018-12-01T03:05:28.138Z,5.40
2018-12-01T03:07:57.399Z,5.40
2018-12-01T03:10:26.697Z,5.30
2018-12-01T03:12:56.062Z,5.30
2018-12-01T03:15:25.318Z,5.30
2018-12-01T03:17:54.592Z,5.30
2018-12-01T03:20:23.855Z,5.40
2018-12-01T03:22:53.376Z,5.40
2018-12-01T03:25:23.457Z,5.40
2018-12-01T03:27:54.754Z,5.50
2018-12-01T03:30:26.201Z,5.50
2018-12-01T03:32:55.871Z,5.50
2018-12-01T03:35:26.300Z,5.60
2018-12-01T03:37:55.540Z,5.60
2018-12-01T03:40:24.895Z,5.60
2018-12-01T03:42:54.173Z,5.60
2018-12-01T03:45:23.888Z,5.60
2018-12-01T03:47:53.465Z,5.60
2018-12-01T03:50:24.181Z,5.60
2018-12-01T03:52:54.731Z,5.50
2018-12-01T03:55:30.176Z,5.40
2018-12-01T03:58:00.005Z,5.40
2018-12-01T04:00:30.972Z,5.40
2018-12-01T04:03:01.021Z,5.40
2018-12-01T04:05:30.642Z,5.40
2018-12-01T04:07:59.935Z,5.40
2018-12-01T04:10:29.274Z,5.40
2018-12-01T04:12:58.559Z,5.40
2018-12-01T04:15:27.881Z,5.30
2018-12-01T04:17:57.159Z,5.30
2018-12-01T04:20:26.692Z,5.30
2018-12-01T04:22:55.989Z,5.30
2018-12-01T04:25:25.354Z,5.40
2018-12-01T04:27:54.587Z,5.40
2018-12-01T04:30:25.176Z,5.40
2018-12-01T04:32:54.628Z,5.50
2018-12-01T04:35:24.618Z,5.50
2018-12-01T04:37:54.934Z,5.50
2018-12-01T04:40:24.701Z,5.50
2018-12-01T04:42:54.201Z,5.60
2018-12-01T04:45:23.494Z,5.60
2018-12-01T04:47:52.846Z,5.60
2018-12-01T04:50:22.203Z,5.60
2018-12-01T04:52:51.562Z,5.70
2018-12-01T04:55:21.470Z,5.70
2018-12-01T04:57:50.827Z,5.70
2018-12-01T05:00:21.391Z,5.70
2018-12-01T05:02:50.621Z,5.60
2018-12-01T05:05:22.513Z,5.70
2018-12-01T05:07:51.867Z,5.60
2018-12-01T05:10:22.935Z,5.60
2018-12-01T05:12:52.222Z,5.60
2018-12-01T05:15:21.544Z,5.60
2018-12-01T05:17:50.829Z,5.50
2018-12-01T05:20:23.849Z,5.50
2018-12-01T05:22:53.699Z,5.50
2018-12-01T05:25:23.149Z,5.40
2018-12-01T05:27:52.467Z,5.40
2018-12-01T05:30:21.853Z,5.40
2018-12-01T05:32:51.175Z,5.40
2018-12-01T05:35:21.725Z,5.30
2018-12-01T05:37:51.068Z,5.30
2018-12-01T05:40:20.726Z,5.30
2018-12-01T05:42:50.015Z,5.40
2018-12-01T05:45:22.526Z,5.40
2018-12-01T05:47:52.429Z,5.40
2018-12-01T05:50:26.571Z,5.30
2018-12-01T05:52:56.758Z,5.30
2018-12-01T05:55:26.338Z,5.30
2018-12-01T05:57:55.625Z,5.30
2018-12-01T06:00:25.059Z,5.30
2018-12-01T06:02:54.339Z,5.20
2018-12-01T06:05:23.573Z,5.20
2018-12-01T06:07:52.892Z,5.20
2018-12-01T06:10:23.718Z,5.20
2018-12-01T06:12:53.607Z,5.20
2018-12-01T06:15:23.371Z,5.20
2018-12-01T06:17:52.625Z,5.30
2018-12-01T06:20:23.150Z,5.40
2018-12-01T06:22:52.473Z,5.40
2018-12-01T06:25:23.841Z,5.40
2018-12-01T06:27:53.647Z,5.40
2018-12-01T06:30:22.917Z,5.40
2018-12-01T06:32:53.043Z,5.40
2018-12-01T06:35:22.303Z,5.50
2018-12-01T06:37:58.301Z,5.50
2018-12-01T06:40:27.570Z,5.50
2018-12-01T06:42:56.805Z,5.50
2018-12-01T06:45:26.194Z,5.50
2018-12-01T06:47:55.516Z,5.50
2018-12-01T06:50:24.797Z,5.50
2018-12-01T06:52:54.387Z,5.60
2018-12-01T06:55:24.085Z,5.50
2018-12-01T06:57:53.405Z,5.50
2018-12-01T07:00:24.688Z,5.60
2018-12-01T07:02:55.198Z,5.50
2018-12-01T07:05:24.474Z,5.50
2018-12-01T07:07:53.783Z,5.50
2018-12-01T07:10:23.706Z,5.50
2018-12-01T07:12:58.637Z,5.50
2018-12-01T07:15:33.580Z,5.50
2018-12-01T07:18:07.371Z,5.40
2018-12-01T07:20:36.626Z,5.50
2018-12-01T07:23:06.250Z,5.40
2018-12-01T07:25:35.655Z,5.50
2018-12-01T07:28:05.074Z,5.40
2018-12-01T07:30:34.456Z,5.40
2018-12-01T07:33:03.781Z,5.40
2018-12-01T07:35:33.191Z,5.40
2018-12-01T07:38:02.545Z,5.40
2018-12-01T07:40:31.906Z,5.30
2018-12-01T07:43:01.845Z,5.30
2018-12-01T07:45:31.167Z,5.30
2018-12-01T07:48:00.473Z,5.20
2018-12-01T07:50:29.867Z,5.30
2018-12-01T07:52:59.126Z,5.20
2018-12-01T07:55:28.384Z,5.20
2018-12-01T07:57:57.617Z,5.20
2018-12-01T08:00:26.983Z,5.30
2018-12-01T08:02:56.488Z,5.30
2018-12-01T08:05:25.818Z,5.40
2018-12-01T08:07:55.175Z,5.40
2018-12-01T08:10:24.438Z,5.40
2018-12-01T08:12:53.703Z,5.30
2018-12-01T08:15:24.033Z,5.30
2018-12-01T08:17:52.347Z,5.30
2018-12-01T08:20:21.718Z,5.30
2018-12-01T08:22:51.002Z,5.30
2018-12-01T08:25:21.601Z,5.40
2018-12-01T08:27:54.237Z,5.40
2018-12-01T08:30:27.126Z,5.40
2018-12-01T08:32:56.390Z,5.50
2018-12-01T08:35:26.986Z,5.50
2018-12-01T08:37:56.250Z,5.60
2018-12-01T08:40:27.107Z,5.60
2018-12-01T08:42:56.456Z,5.70
2018-12-01T08:45:25.700Z,5.70
2018-12-01T08:47:55.023Z,5.80
2018-12-01T08:50:24.768Z,5.80
2018-12-01T08:52:54.217Z,5.80
2018-12-01T08:55:24.443Z,5.80
2018-12-01T08:57:54.509Z,5.90
2018-12-01T09:00:27.841Z,5.90
2018-12-01T09:02:58.783Z,5.90
2018-12-01T09:05:28.081Z,5.90
2018-12-01T09:07:57.359Z,5.90
2018-12-01T09:10:26.626Z,6.00
2018-12-01T09:12:55.894Z,6.00
2018-12-01T09:15:25.177Z,6.00
2018-12-01T09:17:54.519Z,6.10
2018-12-01T09:20:23.823Z,6.10
2018-12-01T09:22:53.089Z,6.10
2018-12-01T09:25:22.362Z,6.20
2018-12-01T09:27:51.625Z,6.30
2018-12-01T09:30:23.129Z,6.30
2018-12-01T09:32:52.427Z,6.40
2018-12-01T09:35:21.684Z,6.50
2018-12-01T09:37:52.053Z,6.50
2018-12-01T09:40:22.406Z,6.50
2018-12-01T09:42:51.662Z,6.50
2018-12-01T09:45:25.001Z,6.50
2018-12-01T09:47:55.536Z,6.60
2018-12-01T09:50:24.782Z,6.50
2018-12-01T09:52:56.049Z,6.60
2018-12-01T09:55:28.466Z,6.60
2018-12-01T09:57:58.460Z,6.70
2018-12-01T10:00:30.843Z,6.70
2018-12-01T10:03:02.306Z,6.80
2018-12-01T10:05:32.296Z,6.80
2018-12-01T10:08:01.559Z,6.80
2018-12-01T10:10:30.866Z,6.90
2018-12-01T10:13:00.129Z,6.90
2018-12-01T10:15:32.279Z,7.00
2018-12-01T10:18:01.649Z,7.00
2018-12-01T10:20:32.389Z,7.00
2018-12-01T10:23:03.047Z,7.10
2018-12-01T10:25:32.284Z,7.10
2018-12-01T10:28:01.530Z,7.20
2018-12-01T10:30:30.837Z,7.20
2018-12-01T10:33:00.113Z,7.30
2018-12-01T10:35:29.369Z,7.30
2018-12-01T10:38:00.071Z,7.40
2018-12-01T10:40:29.322Z,7.50
2018-12-01T10:42:58.572Z,7.50
2018-12-01T10:45:27.865Z,7.60
2018-12-01T10:47:57.093Z,7.70
2018-12-01T10:50:26.418Z,7.70
2018-12-01T10:52:56.053Z,7.80
2018-12-01T10:55:28.250Z,7.90
2018-12-01T10:58:01.789Z,7.90
2018-12-01T11:00:37.114Z,8.00
2018-12-01T11:03:11.522Z,7.90
2018-12-01T11:05:40.861Z,7.90
2018-12-01T11:08:11.353Z,7.90
2018-12-01T11:10:40.583Z,7.90
2018-12-01T11:13:10.014Z,7.90
2018-12-01T11:15:39.453Z,7.90
2018-12-01T11:18:08.721Z,7.90
2018-12-01T11:20:38.466Z,8.00
2018-12-01T11:23:07.897Z,8.10
2018-12-01T11:25:37.448Z,8.00
2018-12-01T11:28:06.711Z,8.00
2018-12-01T11:30:37.675Z,8.10
2018-12-01T11:33:07.728Z,8.10
2018-12-01T11:35:37.062Z,8.10
2018-12-01T11:38:07.260Z,8.10
2018-12-01T11:40:36.515Z,8.20
2018-12-01T11:43:07.183Z,8.30
2018-12-01T11:45:36.475Z,8.30
2018-12-01T11:48:06.599Z,8.30
2018-12-01T11:50:35.892Z,8.40
2018-12-01T11:53:05.570Z,8.40
2018-12-01T11:55:34.803Z,8.40
2018-12-01T11:58:04.398Z,8.40
2018-12-01T12:00:33.673Z,8.40
2018-12-01T12:03:03.111Z,8.40
2018-12-01T12:05:32.466Z,8.50
2018-12-01T12:08:24.230Z,8.50
2018-12-01T12:10:53.912Z,8.50
2018-12-01T12:13:28.770Z,8.50
2018-12-01T12:15:58.074Z,8.50
2018-12-01T12:18:28.815Z,8.50
2018-12-01T12:20:57.072Z,8.50
2018-12-01T12:23:26.469Z,8.50
2018-12-01T12:25:55.735Z,8.40
2018-12-01T12:28:25.011Z,8.40
2018-12-01T12:30:54.384Z,8.40
2018-12-01T12:33:24.330Z,8.30
2018-12-01T12:35:54.406Z,8.30
2018-12-01T12:38:23.682Z,8.30
2018-12-01T12:40:52.906Z,8.30
2018-12-01T12:43:22.398Z,8.40
2018-12-01T12:45:52.322Z,8.40
2018-12-01T12:48:21.588Z,8.50
2018-12-01T12:50:53.215Z,8.50
2018-12-01T12:53:20.220Z,8.50
2018-12-01T12:55:49.465Z,8.50
2018-12-01T12:58:18.820Z,8.50
2018-12-01T13:00:48.195Z,9.00
2018-12-01T13:03:17.559Z,8.50
2018-12-01T13:05:47.188Z,8.50
2018-12-01T13:08:17.952Z,8.50
2018-12-01T13:10:47.544Z,8.50
2018-12-01T13:13:16.853Z,8.50
2018-12-01T13:15:46.137Z,8.50
2018-12-01T13:18:15.653Z,8.50
2018-12-01T13:20:47.854Z,8.50
2018-12-01T13:23:17.160Z,8.50
2018-12-01T13:25:46.504Z,8.50
2018-12-01T13:28:23.021Z,8.50
2018-12-01T13:31:00.156Z,8.50
2018-12-01T13:33:33.034Z,8.50
2018-12-01T13:36:02.406Z,8.50
2018-12-01T13:38:31.947Z,8.40
2018-12-01T13:41:01.234Z,8.40
2018-12-01T13:43:30.599Z,8.30
2018-12-01T13:46:00.657Z,8.30
2018-12-01T13:48:29.865Z,8.20
2018-12-01T13:50:59.193Z,8.20
2018-12-01T13:53:29.165Z,8.20
2018-12-01T13:55:58.497Z,8.20
2018-12-01T13:58:27.864Z,8.20
2018-12-01T14:00:57.163Z,8.20
2018-12-01T14:03:26.441Z,8.20
2018-12-01T14:05:55.963Z,8.20
2018-12-01T14:08:25.265Z,8.20
2018-12-01T14:10:54.753Z,8.20
2018-12-01T14:13:24.015Z,8.20
2018-12-01T14:15:53.378Z,8.20
2018-12-01T14:18:23.872Z,8.20
2018-12-01T14:20:53.258Z,8.20
2018-12-01T14:23:22.553Z,8.20
2018-12-01T14:25:51.799Z,8.20
2018-12-01T14:28:21.108Z,8.20
2018-12-01T14:30:50.441Z,8.20
2018-12-01T14:33:19.801Z,8.20
2018-12-01T14:35:50.351Z,8.20
2018-12-01T14:38:19.626Z,8.10
2018-12-01T14:40:49.885Z,8.10
2018-12-01T14:43:19.277Z,8.20
2018-12-01T14:45:49.643Z,8.20
2018-12-01T14:48:18.947Z,8.10
2018-12-01T14:50:48.702Z,8.10
2018-12-01T14:53:18.238Z,8.10
2018-12-01T14:55:47.523Z,8.20
2018-12-01T14:58:16.871Z,8.20
2018-12-01T15:00:46.212Z,8.20
2018-12-01T15:03:15.531Z,8.20
2018-12-01T15:05:44.815Z,8.20
2018-12-01T15:08:14.182Z,8.20
2018-12-01T15:10:44.500Z,8.20
2018-12-01T15:13:13.908Z,8.10
2018-12-01T15:15:43.770Z,8.10
2018-12-01T15:18:13.054Z,8.00
2018-12-01T15:20:42.369Z,8.00
2018-12-01T15:23:12.260Z,8.10
2018-12-01T15:25:41.878Z,8.10
2018-12-01T15:28:11.909Z,8.10
2018-12-01T15:30:41.219Z,8.00
2018-12-01T15:33:14.687Z,8.00
2018-12-01T15:35:44.890Z,8.00
2018-12-01T15:38:14.425Z,8.00
2018-12-01T15:40:44.815Z,8.00
2018-12-01T15:43:14.188Z,8.00
2018-12-01T15:45:43.559Z,8.00
2018-12-01T15:48:12.938Z,8.00
2018-12-01T15:50:42.611Z,8.00
2018-12-01T15:53:13.988Z,7.90
2018-12-01T15:55:43.375Z,7.90
2018-12-01T15:58:12.624Z,7.90
2018-12-01T16:00:42.713Z,7.90
2018-12-01T16:03:12.084Z,7.90
2018-12-01T16:05:41.682Z,7.90
2018-12-01T16:08:11.557Z,7.90
2018-12-01T16:10:41.022Z,7.90
2018-12-01T16:13:12.759Z,7.80
2018-12-01T16:15:46.141Z,7.80
2018-12-01T16:18:15.426Z,7.80
2018-12-01T16:20:44.815Z,7.80
2018-12-01T16:23:14.085Z,7.80
2018-12-01T16:25:43.399Z,7.80
2018-12-01T16:28:12.742Z,7.80
2018-12-01T16:30:44.338Z,7.80
2018-12-01T16:33:15.123Z,7.80
2018-12-01T16:35:44.474Z,7.90
2018-12-01T16:38:15.279Z,7.90
2018-12-01T16:40:49.231Z,7.90
2018-12-01T16:43:18.656Z,8.20
2018-12-01T16:45:49.886Z,7.90
2018-12-01T16:48:20.197Z,7.90
2018-12-01T16:50:49.526Z,7.80
2018-12-01T16:53:20.255Z,7.80
2018-12-01T16:55:49.554Z,7.90
2018-12-01T16:58:18.866Z,7.90
2018-12-01T17:00:48.182Z,7.90
2018-12-01T17:03:17.506Z,7.90
2018-12-01T17:05:49.676Z,7.80
2018-12-01T17:08:18.936Z,7.80
2018-12-01T17:10:48.510Z,7.80
2018-12-01T17:13:18.212Z,7.80
2018-12-01T17:15:48.417Z,7.80
2018-12-01T17:18:17.719Z,7.80
2018-12-01T17:20:46.967Z,7.80
2018-12-01T17:23:17.557Z,7.80
2018-12-01T17:25:46.813Z,7.80
2018-12-01T17:28:17.631Z,7.80
2018-12-01T17:30:47.118Z,7.90
2018-12-01T17:33:16.408Z,7.90
2018-12-01T17:35:45.710Z,7.90
2018-12-01T17:38:17.794Z,7.80
2018-12-01T17:40:53.246Z,7.80
2018-12-01T17:43:27.013Z,7.80
2018-12-01T17:45:56.409Z,7.80
2018-12-01T17:48:25.786Z,7.80
2018-12-01T17:50:55.098Z,7.70
2018-12-01T17:53:24.394Z,7.70
2018-12-01T17:55:53.658Z,7.70
2018-12-01T17:58:23.061Z,7.70
2018-12-01T18:00:52.342Z,7.70
2018-12-01T18:03:21.711Z,7.70
2018-12-01T18:05:51.306Z,7.70
2018-12-01T18:08:21.841Z,7.70
2018-12-01T18:10:52.801Z,7.70
2018-12-01T18:13:22.501Z,7.60
2018-12-01T18:15:51.994Z,7.60
2018-12-01T18:18:21.275Z,7.60
2018-12-01T18:20:50.570Z,7.60
2018-12-01T18:23:20.464Z,7.60
2018-12-01T18:25:52.078Z,7.60
2018-12-01T18:28:23.930Z,7.60
2018-12-01T18:30:53.309Z,7.60
2018-12-01T18:33:34.781Z,7.60
2018-12-01T18:36:04.197Z,7.60
2018-12-01T18:38:33.589Z,7.60
2018-12-01T18:41:02.848Z,7.60
2018-12-01T18:43:32.140Z,7.50
2018-12-01T18:46:02.804Z,7.60
2018-12-01T18:48:32.083Z,7.50
2018-12-01T18:51:01.396Z,7.50
2018-12-01T18:53:30.813Z,7.60
2018-12-01T18:56:00.081Z,7.60
2018-12-01T18:58:29.365Z,7.50
2018-12-01T19:00:58.785Z,7.60
2018-12-01T19:03:29.656Z,7.50
2018-12-01T19:05:59.137Z,7.50
2018-12-01T19:08:28.523Z,7.50
2018-12-01T19:10:58.037Z,7.60
2018-12-01T19:13:27.331Z,7.60
2018-12-01T19:15:56.832Z,7.60
2018-12-01T19:18:26.070Z,7.60
2018-12-01T19:20:55.350Z,7.60
2018-12-01T19:23:24.659Z,7.60
2018-12-01T19:25:54.084Z,7.60
2018-12-01T19:28:24.601Z,7.60
2018-12-01T19:30:54.785Z,7.60
2018-12-01T19:33:24.669Z,7.60
2018-12-01T19:35:54.622Z,7.60
2018-12-01T19:38:26.274Z,7.60
2018-12-01T19:40:56.522Z,7.60
2018-12-01T19:43:25.797Z,7.70
2018-12-01T19:45:55.150Z,7.70
2018-12-01T19:48:24.994Z,7.60
2018-12-01T19:50:54.558Z,7.70
2018-12-01T19:53:23.910Z,7.70
2018-12-01T19:55:54.127Z,7.70
2018-12-01T19:58:25.806Z,7.70
2018-12-01T20:00:56.403Z,7.70
2018-12-01T20:03:27.033Z,7.70
2018-12-01T20:05:56.311Z,7.70
2018-12-01T20:08:25.603Z,7.70
2018-12-01T20:11:03.351Z,7.70
2018-12-01T20:13:40.127Z,7.70
2018-12-01T20:16:23.206Z,7.80
2018-12-01T20:18:53.491Z,7.80
2018-12-01T20:21:23.304Z,7.80
2018-12-01T20:23:52.616Z,7.70
2018-12-01T20:26:21.947Z,7.80
2018-12-01T20:28:51.537Z,7.80
2018-12-01T20:31:20.859Z,7.80
2018-12-01T20:33:51.925Z,7.80
2018-12-01T20:36:27.290Z,7.80
2018-12-01T20:39:02.684Z,7.80
2018-12-01T20:41:32.074Z,7.80
2018-12-01T20:44:01.352Z,7.80
2018-12-01T20:46:30.607Z,7.80
2018-12-01T20:48:59.842Z,7.80
2018-12-01T20:51:29.082Z,7.80
2018-12-01T20:53:58.416Z,7.80
2018-12-01T20:56:30.163Z,7.90
2018-12-01T20:58:59.484Z,7.80
2018-12-01T21:01:28.727Z,7.90
2018-12-01T21:03:58.109Z,7.90
2018-12-01T21:06:27.432Z,7.90
2018-12-01T21:08:56.686Z,7.90
2018-12-01T21:11:26.037Z,7.90
2018-12-01T21:13:55.386Z,7.90
2018-12-01T21:16:24.705Z,7.90
2018-12-01T21:18:54.086Z,7.90
2018-12-01T21:21:23.402Z,7.90
2018-12-01T21:23:54.060Z,7.90
2018-12-01T21:26:24.194Z,7.90
2018-12-01T21:28:53.727Z,7.90
2018-12-01T21:31:23.068Z,7.90
2018-12-01T21:33:52.343Z,7.90
2018-12-01T21:36:21.638Z,7.90
2018-12-01T21:38:50.991Z,7.90
2018-12-01T21:41:20.395Z,7.90
2018-12-01T21:43:49.779Z,7.90
2018-12-01T21:46:19.121Z,7.90
2018-12-01T21:48:48.446Z,8.00
2018-12-01T21:51:17.832Z,7.90
2018-12-01T21:53:52.173Z,8.00
2018-12-01T21:56:21.454Z,8.00
2018-12-01T21:58:51.173Z,8.00
2018-12-01T22:01:21.319Z,8.00
2018-12-01T22:03:51.350Z,7.90
2018-12-01T22:06:20.036Z,8.00
2018-12-01T22:08:49.314Z,8.00
2018-12-01T22:11:19.033Z,8.00
2018-12-01T22:13:48.377Z,8.00
2018-12-01T22:16:17.675Z,8.10
2018-12-01T22:18:47.078Z,8.00
2018-12-01T22:21:16.361Z,8.10
2018-12-01T22:23:45.632Z,8.10
2018-12-01T22:26:15.794Z,8.10
2018-12-01T22:28:45.090Z,8.10
2018-12-01T22:31:14.370Z,8.10
2018-12-01T22:33:43.621Z,8.20
2018-12-01T22:36:12.990Z,8.20
2018-12-01T22:38:42.261Z,8.20
2018-12-01T22:41:11.552Z,8.20
2018-12-01T22:43:40.810Z,8.20
2018-12-01T22:46:10.173Z,8.20
2018-12-01T22:48:39.431Z,8.20
2018-12-01T22:51:08.726Z,8.30
2018-12-01T22:53:38.105Z,8.30
2018-12-01T22:56:08.235Z,8.20
2018-12-01T22:58:37.554Z,8.30
2018-12-01T23:01:07.717Z,8.30
2018-12-01T23:03:39.991Z,8.30
2018-12-01T23:06:09.281Z,8.30
2018-12-01T23:08:38.550Z,8.30
2018-12-01T23:11:07.896Z,8.30
2018-12-01T23:13:37.692Z,8.30
2018-12-01T23:16:07.022Z,8.30
2018-12-01T23:18:36.323Z,8.40
2018-12-01T23:21:06.094Z,8.40
2018-12-01T23:23:35.761Z,8.40
2018-12-01T23:26:05.032Z,8.40
2018-12-01T23:28:34.327Z,8.50
2018-12-01T23:31:03.640Z,8.40
2018-12-01T23:33:32.901Z,8.50
2018-12-01T23:36:02.138Z,8.50
2018-12-01T23:38:31.451Z,8.50
2018-12-01T23:41:00.821Z,8.50
2018-12-01T23:43:30.032Z,8.50
2018-12-01T23:45:59.345Z,8.60
2018-12-01T23:48:28.613Z,8.50
2018-12-01T23:50:57.857Z,8.50
2018-12-01T23:53:27.233Z,8.50
2018-12-01T23:55:56.598Z,8.50
2018-12-01T23:58:25.852Z,8.50
